createdAt,value
2023-01-13T00:00:27.858Z,7.68
2023-01-13T00:02:55.796Z,8.63
2023-01-13T00:05:23.896Z,7.57
2023-01-13T00:07:51.903Z,7.82
2023-01-13T00:10:20.056Z,7.28
2023-01-13T00:12:48.020Z,6.95
2023-01-13T00:15:16.028Z,6.53
2023-01-13T00:17:43.845Z,6.88
2023-01-13T00:20:13.046Z,7.75
2023-01-13T00:22:41.209Z,7.22
2023-01-13T00:25:09.464Z,5.57
2023-01-13T00:27:37.354Z,7.38
2023-01-13T00:30:06.362Z,8.10
2023-01-13T00:32:34.323Z,7.57
2023-01-13T00:35:02.340Z,6.53
2023-01-13T00:37:30.268Z,6.72
2023-01-13T00:39:58.149Z,6.93
2023-01-13T00:42:44.634Z,10.13
2023-01-13T00:45:12.536Z,7.65
2023-01-13T00:47:40.411Z,7.28
2023-01-13T00:50:09.071Z,6.38
2023-01-13T00:52:37.062Z,7.72
2023-01-13T00:55:05.271Z,5.50
2023-01-13T00:57:33.076Z,6.32
2023-01-13T01:00:01.070Z,8.30
2023-01-13T01:02:28.965Z,6.00
2023-01-13T01:04:57.171Z,14.10
2023-01-13T01:07:25.003Z,5.63
2023-01-13T01:12:21.749Z,7.00
2023-01-13T01:14:49.568Z,5.70
2023-01-13T01:17:20.307Z,7.35
2023-01-13T01:19:48.233Z,5.53
2023-01-13T01:22:16.005Z,7.10
2023-01-13T01:24:43.858Z,6.00
2023-01-13T01:27:11.748Z,6.80
2023-01-13T01:29:39.596Z,7.50
2023-01-13T01:32:07.565Z,8.63
2023-01-13T01:34:35.947Z,7.47
2023-01-13T01:37:03.903Z,5.95
2023-01-13T01:39:31.921Z,7.25
2023-01-13T01:42:18.235Z,6.90
2023-01-13T01:45:22.726Z,6.78
2023-01-13T01:56:10.281Z,7.68
2023-01-13T02:49:43.692Z,7.85
2023-01-13T03:35:12.371Z,7.65
2023-01-13T03:49:22.477Z,8.13
2023-01-13T03:55:12.185Z,9.75
2023-01-13T04:09:56.049Z,5.97
2023-01-13T04:12:50.484Z,6.50
2023-01-13T04:48:01.555Z,5.38
2023-01-13T04:50:29.996Z,6.00
2023-01-13T04:53:02.853Z,5.40
2023-01-13T04:58:14.835Z,7.95
2023-01-13T05:36:55.167Z,9.93
2023-01-13T05:39:27.728Z,13.90
2023-01-13T05:42:13.943Z,6.13
2023-01-13T05:50:00.568Z,8.90
2023-01-13T05:52:29.344Z,15.35
2023-01-13T05:54:57.810Z,15.85
2023-01-13T05:57:25.539Z,13.35
2023-01-13T05:59:53.434Z,13.48
2023-01-13T06:02:21.461Z,11.40
2023-01-13T06:04:49.478Z,13.70
2023-01-13T06:12:40.843Z,18.67
2023-01-13T06:15:09.288Z,60.58
2023-01-13T06:17:37.253Z,194.80
2023-01-13T06:20:06.428Z,114.45
2023-01-13T06:22:40.376Z,50.13
2023-01-13T06:25:16.494Z,37.33
2023-01-13T06:27:47.023Z,33.33
2023-01-13T06:30:19.910Z,20.55
2023-01-13T06:32:53.769Z,22.65
2023-01-13T06:35:29.567Z,26.55
2023-01-13T06:38:08.990Z,24.27
2023-01-13T06:40:37.225Z,18.20
2023-01-13T06:43:17.409Z,12.50
2023-01-13T06:48:38.195Z,10.75
2023-01-13T06:51:06.236Z,10.27
2023-01-13T06:53:34.035Z,10.90
2023-01-13T06:56:11.550Z,13.32
2023-01-13T06:58:39.860Z,12.13
2023-01-13T07:01:08.109Z,13.55
2023-01-13T07:03:36.561Z,13.82
2023-01-13T07:06:06.385Z,11.50
2023-01-13T07:08:36.554Z,9.90
2023-01-13T07:11:04.893Z,12.13
2023-01-13T07:13:56.126Z,14.15
2023-01-13T07:16:28.412Z,15.50
2023-01-13T07:18:56.759Z,18.92
2023-01-13T07:21:25.003Z,20.77
2023-01-13T07:23:52.862Z,38.53
2023-01-13T07:26:20.960Z,62.00
2023-01-13T07:28:49.035Z,56.83
2023-01-13T07:31:21.092Z,48.58
2023-01-13T07:33:49.059Z,25.45
2023-01-13T07:36:16.958Z,29.77
2023-01-13T07:38:44.916Z,30.35
2023-01-13T07:41:32.926Z,15.48
2023-01-13T07:44:05.167Z,51.13
2023-01-13T07:46:34.060Z,24.08
2023-01-13T07:49:02.207Z,62.05
2023-01-13T07:51:30.528Z,79.75
2023-01-13T07:53:58.625Z,44.55
2023-01-13T07:56:26.623Z,111.35
2023-01-13T07:58:59.101Z,97.53
2023-01-13T08:01:32.206Z,107.78
2023-01-13T08:04:00.432Z,126.38
2023-01-13T08:06:28.710Z,86.75
2023-01-13T08:08:56.705Z,43.97
2023-01-13T08:11:24.609Z,50.90
2023-01-13T08:13:56.750Z,26.98
2023-01-13T08:16:49.982Z,48.45
2023-01-13T08:19:17.991Z,15.95
2023-01-13T08:21:51.245Z,14.52
2023-01-13T08:24:19.253Z,10.15
2023-01-13T08:26:49.661Z,13.25
2023-01-13T08:29:17.767Z,9.68
2023-01-13T08:31:45.973Z,8.27
2023-01-13T08:34:13.937Z,21.90
2023-01-13T08:36:42.082Z,9.77
2023-01-13T08:39:10.179Z,9.95
2023-01-13T08:41:56.218Z,8.25
2023-01-13T08:44:28.978Z,7.13
2023-01-13T08:46:57.579Z,6.75
2023-01-13T08:49:26.231Z,7.55
2023-01-13T08:51:54.611Z,9.68
2023-01-13T08:54:22.686Z,8.00
2023-01-13T08:56:50.640Z,8.88
2023-01-13T08:59:20.349Z,5.82
2023-01-13T09:01:48.647Z,10.95
2023-01-13T09:04:20.294Z,7.05
2023-01-13T09:06:48.557Z,8.90
2023-01-13T09:09:16.731Z,6.65
2023-01-13T09:12:06.296Z,9.32
2023-01-13T09:14:39.443Z,11.15
2023-01-13T09:17:08.255Z,8.88
2023-01-13T09:19:36.743Z,6.07
2023-01-13T09:22:05.218Z,7.82
2023-01-13T09:24:33.267Z,6.72
2023-01-13T09:27:02.106Z,6.10
2023-01-13T09:29:30.037Z,6.22
2023-01-13T09:31:58.566Z,8.35
2023-01-13T09:34:44.872Z,32.58
2023-01-13T09:37:13.100Z,48.42
2023-01-13T09:39:41.164Z,15.32
2023-01-13T09:42:46.621Z,13.00
2023-01-13T09:45:21.168Z,12.82
2023-01-13T09:48:12.641Z,16.35
2023-01-13T09:51:28.372Z,18.30
2023-01-13T09:54:28.749Z,16.30
2023-01-13T09:56:57.845Z,27.42
2023-01-13T09:59:36.612Z,13.68
2023-01-13T10:02:26.791Z,12.82
2023-01-13T10:05:28.207Z,8.45
2023-01-13T10:08:03.053Z,8.70
2023-01-13T10:10:53.941Z,8.60
2023-01-13T10:13:23.697Z,11.80
2023-01-13T10:16:03.498Z,5.88
2023-01-13T10:18:34.405Z,11.68
2023-01-13T10:21:25.467Z,11.93
2023-01-13T10:24:07.768Z,13.43
2023-01-13T10:27:00.485Z,12.52
2023-01-13T10:29:30.673Z,7.57
2023-01-13T10:32:00.493Z,8.15
2023-01-13T10:34:29.276Z,8.85
2023-01-13T10:37:06.799Z,12.90
2023-01-13T10:39:46.107Z,7.50
2023-01-13T10:42:17.516Z,8.98
2023-01-13T10:44:51.584Z,9.77
2023-01-13T10:47:21.378Z,11.95
2023-01-13T10:50:06.394Z,19.73
2023-01-13T10:52:39.709Z,12.82
2023-01-13T10:55:33.705Z,12.93
2023-01-13T10:58:18.757Z,13.68
2023-01-13T11:00:49.328Z,12.82
2023-01-13T11:03:24.924Z,14.40
2023-01-13T11:06:00.696Z,16.05
2023-01-13T11:08:44.162Z,15.93
2023-01-13T11:11:33.509Z,12.85
2023-01-13T11:14:41.777Z,12.52
2023-01-13T11:17:27.939Z,15.75
2023-01-13T11:20:19.829Z,13.32
2023-01-13T11:22:51.800Z,9.43
2023-01-13T11:25:42.422Z,9.02
2023-01-13T11:28:21.167Z,12.77
2023-01-13T11:31:11.137Z,16.67
2023-01-13T11:33:45.466Z,10.77
2023-01-13T11:36:29.470Z,12.55
2023-01-13T11:39:09.472Z,10.13
2023-01-13T11:41:37.584Z,14.60
2023-01-13T11:44:19.443Z,28.15
2023-01-13T11:46:54.979Z,28.45
2023-01-13T11:49:28.041Z,34.97
2023-01-13T11:52:00.474Z,45.67
2023-01-13T11:54:31.267Z,19.23
2023-01-13T11:57:30.110Z,15.10
2023-01-13T12:00:24.306Z,27.63
2023-01-13T12:03:07.459Z,19.35
2023-01-13T12:05:42.648Z,20.77
2023-01-13T12:08:46.235Z,18.35
2023-01-13T12:11:55.779Z,12.20
2023-01-13T12:14:33.251Z,10.25
2023-01-13T12:17:02.969Z,15.73
2023-01-13T12:19:32.601Z,36.47
2023-01-13T12:22:37.200Z,12.48
2023-01-13T12:25:34.057Z,12.05
2023-01-13T12:28:14.432Z,8.75
2023-01-13T12:30:48.663Z,18.75
2023-01-13T12:33:49.387Z,11.98
2023-01-13T12:36:48.578Z,9.50
2023-01-13T12:39:48.497Z,9.88
2023-01-13T12:45:24.930Z,12.07
2023-01-13T12:47:53.699Z,10.95
2023-01-13T12:50:24.949Z,10.82
2023-01-13T12:52:55.215Z,32.60
2023-01-13T12:55:25.564Z,24.52
2023-01-13T12:58:08.461Z,18.92
2023-01-13T13:00:42.465Z,19.20
2023-01-13T13:03:18.538Z,14.95
2023-01-13T13:06:12.149Z,9.02
2023-01-13T13:09:04.396Z,9.60
2023-01-13T13:12:01.166Z,13.15
2023-01-13T13:14:38.199Z,18.55
2023-01-13T13:17:32.011Z,17.48
2023-01-13T13:20:01.727Z,19.38
2023-01-13T13:22:43.299Z,16.05
2023-01-13T13:25:21.844Z,17.05
2023-01-13T13:28:08.244Z,14.27
2023-01-13T13:30:39.516Z,8.05
2023-01-13T13:33:39.302Z,9.30
2023-01-13T13:36:20.017Z,13.45
2023-01-13T13:39:24.625Z,15.35
2023-01-13T13:42:21.661Z,20.70
2023-01-13T13:45:10.146Z,13.77
2023-01-13T13:47:39.492Z,13.35
2023-01-13T13:50:20.722Z,25.95
2023-01-13T13:53:02.652Z,13.80
2023-01-13T13:55:30.947Z,18.02
2023-01-13T13:58:01.797Z,13.20
2023-01-13T14:00:34.960Z,19.70
2023-01-13T14:03:22.280Z,14.60
2023-01-13T14:06:02.899Z,11.77
2023-01-13T14:08:39.808Z,17.35
2023-01-13T14:11:27.979Z,14.90
2023-01-13T14:14:07.496Z,19.83
2023-01-13T14:16:38.315Z,21.52
2023-01-13T14:19:07.490Z,14.07
2023-01-13T14:21:35.569Z,29.27
2023-01-13T14:24:14.627Z,24.63
2023-01-13T14:26:42.959Z,11.57
2023-01-13T14:29:18.951Z,13.15
2023-01-13T14:31:49.156Z,14.77
2023-01-13T14:34:30.973Z,17.20
2023-01-13T14:37:03.404Z,11.30
2023-01-13T14:39:40.718Z,10.05
2023-01-13T14:42:14.638Z,10.15
2023-01-13T14:44:48.005Z,8.68
2023-01-13T14:47:28.962Z,12.95
2023-01-13T14:50:28.545Z,18.35
2023-01-13T14:52:57.680Z,28.10
2023-01-13T14:55:41.297Z,11.23
2023-01-13T14:58:25.720Z,11.23
2023-01-13T15:01:30.677Z,13.50
2023-01-13T15:04:25.214Z,13.80
2023-01-13T15:06:56.875Z,13.73
2023-01-13T15:09:28.220Z,12.90
2023-01-13T15:11:59.058Z,11.45
2023-01-13T15:14:35.104Z,15.40
2023-01-13T15:17:03.672Z,95.53
2023-01-13T15:19:32.032Z,98.35
2023-01-13T15:22:00.527Z,81.22
2023-01-13T15:24:29.083Z,111.50
2023-01-13T15:26:57.527Z,75.28
2023-01-13T15:29:26.260Z,42.47
2023-01-13T15:31:54.845Z,31.42
2023-01-13T15:34:23.309Z,100.32
2023-01-13T15:36:51.708Z,67.93
2023-01-13T15:39:20.645Z,48.30
2023-01-13T15:42:07.655Z,32.92
2023-01-13T15:44:54.893Z,66.82
2023-01-13T15:47:25.478Z,85.82
2023-01-13T15:49:55.105Z,65.80
2023-01-13T15:52:26.232Z,37.65
2023-01-13T15:55:05.920Z,49.42
2023-01-13T15:57:38.775Z,71.95
2023-01-13T16:00:30.569Z,184.77
2023-01-13T16:03:00.222Z,294.83
2023-01-13T16:05:35.377Z,55.75
2023-01-13T16:08:03.851Z,36.35
2023-01-13T16:10:33.435Z,30.88
2023-01-13T16:13:02.020Z,25.13
2023-01-13T16:15:30.469Z,40.28
2023-01-13T16:18:01.493Z,22.25
2023-01-13T16:20:42.192Z,15.38
2023-01-13T16:23:11.753Z,20.38
2023-01-13T16:25:43.406Z,21.23
2023-01-13T16:28:24.383Z,34.53
2023-01-13T16:31:05.335Z,23.27
2023-01-13T16:33:33.823Z,28.40
2023-01-13T16:36:10.493Z,48.00
2023-01-13T16:38:41.712Z,18.73
2023-01-13T16:43:39.430Z,21.63
2023-01-13T16:46:29.616Z,51.72
2023-01-13T16:49:03.374Z,27.55
2023-01-13T16:51:32.383Z,16.67
2023-01-13T16:54:00.438Z,23.33
2023-01-13T16:56:32.433Z,19.17
2023-01-13T16:59:08.663Z,18.60
2023-01-13T17:01:39.822Z,21.20
2023-01-13T17:04:18.435Z,24.30
2023-01-13T17:07:07.446Z,34.40
2023-01-13T17:09:35.772Z,43.60
2023-01-13T17:12:05.027Z,37.80
2023-01-13T17:14:34.014Z,38.38
2023-01-13T17:19:30.946Z,37.40
2023-01-13T17:21:59.262Z,38.42
2023-01-13T17:29:56.217Z,11.27
2023-01-13T17:32:25.180Z,13.32
2023-01-13T17:34:55.016Z,30.45
2023-01-13T17:37:34.376Z,139.52
2023-01-13T17:40:03.024Z,165.07
2023-01-13T17:42:31.707Z,112.55
2023-01-13T17:45:00.127Z,63.90
2023-01-13T17:47:28.675Z,31.13
2023-01-13T17:49:57.061Z,22.40
2023-01-13T17:52:25.374Z,17.90
2023-01-13T17:54:53.849Z,15.07
2023-01-13T17:57:22.334Z,15.57
2023-01-13T17:59:50.655Z,16.95
2023-01-13T18:02:19.642Z,41.45
2023-01-13T18:04:48.091Z,61.17
2023-01-13T18:07:16.348Z,49.00
2023-01-13T18:09:50.071Z,64.18
2023-01-13T18:12:19.074Z,55.72
2023-01-13T18:17:29.858Z,35.95
2023-01-13T18:20:26.042Z,25.65
2023-01-13T18:23:13.398Z,44.15
2023-01-13T18:26:00.132Z,31.90
2023-01-13T18:28:33.728Z,22.70
2023-01-13T18:31:02.432Z,35.05
2023-01-13T18:36:23.833Z,21.77
2023-01-13T18:41:53.731Z,10.88
2023-01-13T18:44:22.423Z,15.23
2023-01-13T18:46:50.865Z,13.23
2023-01-13T18:52:01.266Z,9.80
2023-01-13T18:54:29.511Z,7.80
2023-01-13T18:56:57.884Z,8.60
2023-01-13T18:59:26.696Z,11.10
2023-01-13T19:01:55.528Z,11.95
2023-01-13T19:04:24.244Z,12.35
2023-01-13T19:06:52.734Z,18.95
2023-01-13T19:09:25.299Z,16.13
2023-01-13T19:11:54.808Z,17.38
2023-01-13T19:17:12.431Z,20.35
2023-01-13T19:19:44.163Z,16.02
2023-01-13T19:22:15.349Z,15.68
2023-01-13T19:24:44.067Z,46.47
2023-01-13T19:27:14.906Z,26.95
2023-01-13T19:29:50.403Z,35.03
2023-01-13T19:32:22.413Z,49.75
2023-01-13T19:34:51.577Z,46.65
2023-01-13T19:39:48.230Z,49.83
2023-01-13T19:42:35.787Z,49.25
2023-01-13T19:47:51.655Z,44.47
2023-01-13T19:50:20.101Z,53.10
2023-01-13T19:52:48.650Z,44.47
2023-01-13T19:55:17.187Z,46.70
2023-01-13T19:57:45.862Z,49.63
2023-01-13T20:00:18.785Z,55.92
2023-01-13T20:02:49.785Z,68.82
2023-01-13T20:05:26.187Z,48.35
2023-01-13T20:07:54.861Z,32.95
2023-01-13T20:10:24.959Z,33.60
2023-01-13T20:12:53.412Z,32.83
2023-01-13T20:15:22.423Z,31.85
2023-01-13T20:17:51.115Z,29.27
2023-01-13T20:20:20.838Z,21.52
2023-01-13T20:22:50.203Z,23.80
2023-01-13T20:27:48.592Z,44.20
2023-01-13T20:30:17.517Z,56.47
2023-01-13T20:32:45.872Z,46.53
2023-01-13T20:35:15.106Z,52.85
2023-01-13T20:37:43.892Z,54.33
2023-01-13T20:40:15.285Z,59.70
2023-01-13T20:42:47.129Z,50.92
2023-01-13T20:45:20.747Z,51.67
2023-01-13T20:47:49.354Z,41.60
2023-01-13T20:50:18.079Z,41.20
2023-01-13T20:52:46.831Z,32.85
2023-01-13T20:55:15.556Z,30.75
2023-01-13T20:57:43.991Z,45.63
2023-01-13T21:00:13.226Z,47.60
2023-01-13T21:02:42.242Z,47.95
2023-01-13T21:05:10.707Z,50.28
2023-01-13T21:07:39.148Z,49.58
2023-01-13T21:10:08.407Z,51.85
2023-01-13T21:12:55.387Z,37.53
2023-01-13T21:15:24.406Z,58.05
2023-01-13T21:18:11.243Z,46.92
2023-01-13T21:20:39.839Z,47.75
2023-01-13T21:23:11.033Z,38.20
2023-01-13T21:25:40.685Z,38.85
2023-01-13T21:28:13.815Z,32.60
2023-01-13T21:30:42.424Z,25.67
2023-01-13T21:33:14.490Z,21.80
2023-01-13T21:35:43.066Z,15.20
2023-01-13T21:38:12.403Z,11.20
2023-01-13T21:40:40.834Z,11.60
2023-01-13T21:43:31.240Z,14.68
2023-01-13T21:46:17.969Z,24.02
2023-01-13T21:48:46.186Z,27.30
2023-01-13T21:51:14.067Z,30.05
2023-01-13T21:53:42.079Z,42.50
2023-01-13T21:56:10.385Z,69.45
2023-01-13T21:58:39.313Z,51.47
2023-01-13T22:01:10.134Z,46.63
2023-01-13T22:03:59.603Z,40.80
2023-01-13T22:06:28.552Z,32.80
2023-01-13T22:09:00.093Z,15.45
2023-01-13T22:11:29.348Z,8.75
2023-01-13T22:14:10.449Z,16.58
2023-01-13T22:16:49.255Z,16.67
2023-01-13T22:19:18.936Z,33.15
2023-01-13T22:21:46.976Z,46.40
2023-01-13T22:24:15.218Z,35.80
2023-01-13T22:26:43.478Z,40.58
2023-01-13T22:29:11.330Z,42.40
2023-01-13T22:31:40.266Z,40.17
2023-01-13T22:34:08.583Z,42.53
2023-01-13T22:36:36.484Z,35.30
2023-01-13T22:39:05.250Z,44.97
2023-01-13T22:41:33.240Z,53.72
2023-01-13T22:44:01.169Z,48.20
2023-01-13T22:46:29.280Z,38.17
2023-01-13T22:48:57.203Z,51.70
2023-01-13T22:51:26.835Z,41.92
2023-01-13T22:53:55.038Z,44.78
2023-01-13T22:56:25.652Z,46.28
2023-01-13T22:58:55.493Z,35.15
2023-01-13T23:01:25.130Z,33.30
2023-01-13T23:03:53.588Z,60.17
2023-01-13T23:06:24.157Z,43.50
2023-01-13T23:08:52.731Z,45.10
2023-01-13T23:11:24.204Z,41.70
2023-01-13T23:13:57.780Z,41.97
2023-01-13T23:16:27.146Z,41.08
2023-01-13T23:18:55.186Z,35.38
2023-01-13T23:21:26.551Z,32.92
2023-01-13T23:23:55.606Z,32.13
2023-01-13T23:26:24.329Z,31.27
2023-01-13T23:28:52.247Z,30.73
2023-01-13T23:31:22.330Z,32.25
2023-01-13T23:33:50.409Z,28.50
2023-01-13T23:36:24.420Z,31.75
2023-01-13T23:38:53.295Z,32.20
2023-01-13T23:41:24.739Z,41.55
2023-01-13T23:43:54.284Z,49.83
2023-01-13T23:46:23.167Z,44.15
2023-01-13T23:48:51.968Z,43.53
2023-01-13T23:51:21.540Z,38.08
2023-01-13T23:53:50.773Z,42.83
2023-01-13T23:56:27.975Z,46.05
2023-01-13T23:58:57.244Z,40.35
